Time;durP1;ratioP1;P1;durP2;ratioP2;P2;SDS_P1;SDS_P2;PMS_P1;PMS_P2;Temp;Humidity;BMP_temperature;BMP_pressure;BME280_temperature;BME280_humidity;BME280_pressure;Samples;Min_cycle;Max_cycle;Signal;HPM_P1;HPM_P2
2022/03/15 00:00:46;;;;;;;102.45;48.22;;;;;;;0.63;99.63;100529.31;2074480;28;20211;-69
2022/03/15 00:01:53;;;;;;;98.72;46.72;;;;;;;0.61;99.37;100531.31;2073851;28;20217;-70
2022/03/15 00:03:05;;;;;;;91.70;45.67;;;;;;;0.60;98.50;100529.69;2075032;28;20198;-71
2022/03/15 00:04:09;;;;;;;68.20;36.90;;;;;;;0.57;98.17;100536.16;2074279;28;20227;-70
2022/03/15 00:05:13;;;;;;;70.82;37.08;;;;;;;0.51;98.33;100534.28;2074663;28;20189;-70
2022/03/15 00:06:21;;;;;;;75.93;38.05;;;;;;;0.44;99.03;100528.22;2074277;28;20231;-70
2022/03/15 00:07:27;;;;;;;75.43;39.10;;;;;;;0.36;99.40;100526.53;2073629;28;20266;-70
2022/03/15 00:08:38;;;;;;;75.72;39.45;;;;;;;0.26;99.61;100521.66;2075938;28;20200;-69
2022/03/15 00:09:45;;;;;;;70.38;36.45;;;;;;;0.22;100.00;100520.38;2081093;28;20203;-69
2022/03/15 00:10:48;;;;;;;77.53;39.28;;;;;;;0.17;100.00;100519.34;2075379;28;20226;-70
2022/03/15 00:11:54;;;;;;;77.22;39.10;;;;;;;0.10;100.00;100513.25;2074246;28;20257;-70
2022/03/15 00:13:02;;;;;;;78.30;41.72;;;;;;;0.06;100.00;100520.69;2074550;28;20173;-70
2022/03/15 00:14:08;;;;;;;83.90;39.90;;;;;;;0.02;100.00;100510.78;2074235;28;20227;-70
2022/03/15 00:15:22;;;;;;;80.63;38.78;;;;;;;-0.02;100.00;100516.38;2073824;28;20219;-70
2022/03/15 00:16:25;;;;;;;78.72;41.28;;;;;;;-0.07;100.00;100516.16;2075907;28;20180;-70
2022/03/15 00:17:31;;;;;;;85.47;40.80;;;;;;;-0.10;100.00;100520.97;2074209;28;20736;-71
2022/03/15 00:18:35;;;;;;;85.15;41.88;;;;;;;-0.13;100.00;100518.72;2073977;28;20204;-70
2022/03/15 00:19:39;;;;;;;85.78;40.85;;;;;;;-0.16;100.00;100524.38;2073668;28;20572;-71
2022/03/15 00:20:51;;;;;;;97.28;47.40;;;;;;;-0.19;100.00;100525.53;2074221;28;20184;-70
2022/03/15 00:21:59;;;;;;;90.80;45.22;;;;;;;-0.15;100.00;100518.13;2074781;28;20688;-69
2022/03/15 00:23:06;;;;;;;93.50;46.38;;;;;;;-0.03;100.00;100522.63;2073458;28;20200;-70
2022/03/15 00:24:09;;;;;;;112.00;47.65;;;;;;;-0.01;100.00;100522.44;2075078;28;20197;-70
2022/03/15 00:25:17;;;;;;;102.47;44.97;;;;;;;0.00;100.00;100524.09;2073571;28;20227;-69
2022/03/15 00:26:18;;;;;;;103.68;46.10;;;;;;;-0.02;100.00;100523.44;2075267;28;20181;-70
2022/03/15 00:27:21;;;;;;;97.22;45.85;;;;;;;-0.05;100.00;100522.03;2073986;28;20613;-69
2022/03/15 00:28:29;;;;;;;94.30;45.90;;;;;;;-0.06;100.00;100523.03;2073632;28;20688;-70
2022/03/15 00:29:39;;;;;;;98.25;45.47;;;;;;;-0.06;100.00;100530.91;2074899;28;20559;-70
2022/03/15 00:30:47;;;;;;;104.03;47.05;;;;;;;-0.07;100.00;100528.47;2066932;28;20200;-70
2022/03/15 00:31:54;;;;;;;113.05;51.00;;;;;;;-0.07;100.00;100526.66;2068121;28;20208;-69
2022/03/15 00:32:58;;;;;;;114.80;51.45;;;;;;;0.04;100.00;100535.81;2073315;28;20229;-70
2022/03/15 00:34:02;;;;;;;120.65;52.97;;;;;;;0.18;100.00;100531.47;2073527;28;20220;-69
2022/03/15 00:35:17;;;;;;;114.40;51.55;;;;;;;0.26;100.00;100540.00;2075004;28;20206;-69
2022/03/15 00:36:20;;;;;;;119.82;53.50;;;;;;;0.31;100.00;100536.81;2072479;28;20621;-70
2022/03/15 00:37:31;;;;;;;118.20;53.80;;;;;;;0.29;100.00;100536.19;2067042;28;20200;-70
2022/03/15 00:38:41;;;;;;;111.45;52.20;;;;;;;0.28;100.00;100531.94;2073541;28;20188;-69
2022/03/15 00:39:45;;;;;;;124.88;53.65;;;;;;;0.28;100.00;100534.56;2075495;28;20172;-70
2022/03/15 00:40:51;;;;;;;123.65;54.60;;;;;;;0.28;100.00;100527.50;2073386;28;20205;-70
2022/03/15 00:42:01;;;;;;;121.30;51.17;;;;;;;0.22;100.00;100524.84;2073513;28;20208;-70
2022/03/15 00:43:17;;;;;;;113.30;51.25;;;;;;;0.19;100.00;100528.66;2074564;28;20173;-69
2022/03/15 00:44:28;;;;;;;108.93;51.25;;;;;;;0.10;100.00;100518.50;2074168;28;20729;-69
2022/03/15 00:45:38;;;;;;;116.65;51.88;;;;;;;0.04;100.00;100527.94;2075642;28;20184;-69
2022/03/15 00:46:41;;;;;;;120.95;52.42;;;;;;;0.00;100.00;100529.34;2073159;28;20243;-69
2022/03/15 00:47:46;;;;;;;127.72;53.55;;;;;;;-0.07;100.00;100524.03;2066450;28;20284;-70
2022/03/15 00:48:50;;;;;;;129.27;55.35;;;;;;;-0.12;100.00;100523.78;2073418;28;20696;-70
2022/03/15 00:49:54;;;;;;;124.20;54.03;;;;;;;-0.17;100.00;100526.19;2074252;28;20599;-69
2022/03/15 00:50:59;;;;;;;115.90;51.83;;;;;;;-0.22;100.00;100525.91;2073903;28;20188;-69
2022/03/15 00:52:06;;;;;;;111.90;50.78;;;;;;;-0.26;100.00;100524.69;2073942;28;20188;-68
2022/03/15 00:53:18;;;;;;;110.82;50.17;;;;;;;-0.32;100.00;100517.56;2075041;28;20628;-69
2022/03/15 00:54:20;;;;;;;114.78;52.00;;;;;;;-0.31;100.00;100519.19;2073955;28;20667;-69
2022/03/15 00:55:24;;;;;;;106.80;49.85;;;;;;;-0.36;100.00;100524.19;2073641;28;20216;-69
2022/03/15 00:56:31;;;;;;;128.07;55.65;;;;;;;-0.40;100.00;100515.88;2072813;28;20686;-69
2022/03/15 00:57:41;;;;;;;127.45;52.70;;;;;;;-0.41;100.00;100529.19;2073379;28;20299;-68
2022/03/15 00:58:49;;;;;;;126.30;56.30;;;;;;;-0.45;100.00;100520.06;2075364;28;20197;-69
2022/03/15 01:00:02;;;;;;;94.20;44.40;;;;;;;-0.51;100.00;100516.41;2073503;28;20200;-69
2022/03/15 01:01:07;;;;;;;124.65;55.15;;;;;;;-0.52;100.00;100519.19;2074923;28;20200;-69
2022/03/15 01:02:12;;;;;;;120.38;52.95;;;;;;;-0.57;100.00;100520.56;2073841;28;20291;-69
2022/03/15 01:03:16;;;;;;;134.98;59.17;;;;;;;-0.55;100.00;100522.19;2067498;28;20201;-69
2022/03/15 01:04:21;;;;;;;160.55;65.22;;;;;;;-0.45;100.00;100513.00;2073793;28;20200;-69
2022/03/15 01:05:28;;;;;;;152.43;63.50;;;;;;;-0.39;100.00;100514.88;2072823;28;20196;-68
2022/03/15 01:06:39;;;;;;;145.98;62.55;;;;;;;-0.34;100.00;100515.13;2074657;28;20322;-69
2022/03/15 01:07:50;;;;;;;139.85;59.50;;;;;;;-0.34;100.00;100512.53;2073559;28;20210;-69
2022/03/15 01:08:52;;;;;;;148.07;60.75;;;;;;;-0.36;100.00;100509.25;2075173;28;20200;-69
2022/03/15 01:09:54;;;;;;;143.85;61.28;;;;;;;-0.38;100.00;100516.50;2074060;28;20196;-69
2022/03/15 01:11:00;;;;;;;111.18;51.97;;;;;;;-0.41;100.00;100510.84;2074176;28;20291;-70
2022/03/15 01:12:09;;;;;;;136.05;60.08;;;;;;;-0.41;100.00;100503.78;2066944;28;20197;-69
2022/03/15 01:13:16;;;;;;;140.48;60.88;;;;;;;-0.41;100.00;100510.84;2066152;28;20228;-69
2022/03/15 01:14:22;;;;;;;146.20;60.30;;;;;;;-0.41;100.00;100502.97;2075267;28;20257;-69
2022/03/15 01:15:29;;;;;;;151.32;63.10;;;;;;;-0.40;100.00;100510.66;2073913;28;20204;-69
2022/03/15 01:16:31;;;;;;;152.57;61.80;;;;;;;-0.39;100.00;100504.41;2074735;28;20211;-69
2022/03/15 01:17:35;;;;;;;138.15;61.03;;;;;;;-0.37;100.00;100509.44;2073603;28;20201;-69
2022/03/15 01:18:38;;;;;;;149.10;63.10;;;;;;;-0.35;100.00;100504.81;2065872;28;20209;-69
2022/03/15 01:19:46;;;;;;;141.07;62.08;;;;;;;-0.36;100.00;100504.00;2074667;28;20231;-69
2022/03/15 01:20:53;;;;;;;157.20;60.75;;;;;;;-0.38;100.00;100506.00;2074344;28;20208;-69
2022/03/15 01:22:04;;;;;;;147.00;62.47;;;;;;;-0.39;100.00;100503.59;2073657;28;20311;-69
2022/03/15 01:23:11;;;;;;;155.90;63.08;;;;;;;-0.40;100.00;100501.97;2073136;28;20204;-70
2022/03/15 01:24:21;;;;;;;162.80;64.72;;;;;;;-0.43;100.00;100504.97;2074013;28;20188;-69
2022/03/15 01:25:23;;;;;;;154.18;62.17;;;;;;;-0.48;100.00;100500.28;2073093;28;20205;-69
2022/03/15 01:26:34;;;;;;;158.13;64.43;;;;;;;-0.47;100.00;100498.47;2064660;28;20204;-69
2022/03/15 01:27:44;;;;;;;145.75;63.67;;;;;;;-0.48;100.00;100491.59;2074609;28;20192;-69
2022/03/15 01:28:51;;;;;;;151.35;63.13;;;;;;;-0.49;100.00;100501.28;2073472;28;20204;-70
2022/03/15 01:29:56;;;;;;;160.73;64.95;;;;;;;-0.50;100.00;100509.34;2066190;28;20469;-69
2022/03/15 01:31:01;;;;;;;157.60;65.85;;;;;;;-0.50;100.00;100504.91;2065417;28;20205;-70
2022/03/15 01:32:09;;;;;;;160.20;65.85;;;;;;;-0.47;100.00;100506.34;2073908;28;20185;-69
2022/03/15 01:33:21;;;;;;;157.80;65.70;;;;;;;-0.48;100.00;100489.81;2065739;28;20228;-69
2022/03/15 01:34:29;;;;;;;159.13;65.80;;;;;;;-0.50;100.00;100498.84;2073281;28;20189;-69
2022/03/15 01:35:44;;;;;;;154.88;65.70;;;;;;;-0.50;100.00;100504.91;2073218;28;20572;-69
2022/03/15 01:36:50;;;;;;;147.35;61.72;;;;;;;-0.55;100.00;100494.16;2066716;28;20311;-70
2022/03/15 01:37:54;;;;;;;148.85;64.68;;;;;;;-0.57;100.00;100502.22;2066821;28;20300;-70
2022/03/15 01:38:59;;;;;;;149.73;64.15;;;;;;;-0.60;100.00;100491.31;2065147;28;20197;-69
2022/03/15 01:40:18;;;;;;;158.40;66.28;;;;;;;-0.59;100.00;100498.97;2073888;28;20173;-69
2022/03/15 01:41:26;;;;;;;146.77;61.70;;;;;;;-0.62;100.00;100494.09;2081172;28;20211;-70
2022/03/15 01:42:39;;;;;;;145.77;62.40;;;;;;;-0.64;100.00;100492.66;2073312;28;20193;-70
2022/03/15 01:43:46;;;;;;;152.25;64.03;;;;;;;-0.66;100.00;100486.81;2073978;28;20235;-69
2022/03/15 01:44:53;;;;;;;140.43;60.10;;;;;;;-0.67;100.00;100490.44;2073045;28;20663;-69
2022/03/15 01:45:54;;;;;;;137.75;60.53;;;;;;;-0.70;100.00;100490.78;2074583;28;20219;-69
2022/03/15 01:47:06;;;;;;;140.33;61.87;;;;;;;-0.73;100.00;100485.94;2073711;28;20295;-69
2022/03/15 01:48:15;;;;;;;150.70;62.70;;;;;;;-0.78;100.00;100485.66;2075372;28;20518;-70
2022/03/15 01:49:30;;;;;;;144.95;63.50;;;;;;;-0.80;100.00;100483.25;2073159;28;20196;-69
2022/03/15 01:50:42;;;;;;;143.40;62.22;;;;;;;-0.86;100.00;100474.34;2074092;28;20671;-71
2022/03/15 01:51:46;;;;;;;141.85;61.60;;;;;;;-0.92;100.00;100476.88;2072259;28;20637;-69
2022/03/15 01:52:51;;;;;;;139.27;60.35;;;;;;;-0.94;100.00;100481.50;2073127;28;20603;-69
2022/03/15 01:54:00;;;;;;;159.63;65.35;;;;;;;-1.00;100.00;100477.00;2074623;28;20195;-69
2022/03/15 01:55:07;;;;;;;128.68;53.80;;;;;;;-1.02;100.00;100485.03;2073385;28;20200;-69
2022/03/15 01:56:17;;;;;;;145.70;60.60;;;;;;;-1.06;100.00;100480.34;2074469;28;20197;-70
2022/03/15 01:57:27;;;;;;;146.52;61.88;;;;;;;-1.08;100.00;100487.59;2072659;28;20248;-69
2022/03/15 01:58:32;;;;;;;137.80;62.78;;;;;;;-1.11;100.00;100482.72;2074130;28;20207;-70
2022/03/15 01:59:40;;;;;;;139.63;59.55;;;;;;;-1.10;100.00;100473.88;2073224;28;20257;-69
2022/03/15 02:00:41;;;;;;;132.98;60.05;;;;;;;-1.11;100.00;100480.09;2073044;28;20756;-70
2022/03/15 02:01:52;;;;;;;151.23;66.20;;;;;;;-1.16;100.00;100476.22;2074973;28;20188;-69
2022/03/15 02:03:00;;;;;;;139.45;59.22;;;;;;;-1.14;100.00;100478.66;2073854;28;20258;-69
2022/03/15 02:04:07;;;;;;;136.75;57.53;;;;;;;-1.15;100.00;100483.06;2075103;28;20244;-69
2022/03/15 02:05:16;;;;;;;147.80;59.33;;;;;;;-1.15;100.00;100479.66;2073801;28;20205;-69
2022/03/15 02:06:21;;;;;;;153.25;64.60;;;;;;;-1.16;100.00;100491.94;2073856;28;20259;-69
2022/03/15 02:07:22;;;;;;;157.27;67.13;;;;;;;-1.16;100.00;100480.66;2075347;28;20215;-68
2022/03/15 02:08:29;;;;;;;174.75;68.03;;;;;;;-1.12;100.00;100483.72;2074506;28;20288;-69
2022/03/15 02:09:40;;;;;;;165.02;69.35;;;;;;;-1.09;100.00;100480.72;2077326;28;20181;-68
2022/03/15 02:10:47;;;;;;;171.18;65.60;;;;;;;-1.08;100.00;100482.34;2075148;28;20283;-68
2022/03/15 02:11:59;;;;;;;128.23;56.45;;;;;;;-1.07;100.00;100478.72;2077066;28;20212;-68
2022/03/15 02:13:01;;;;;;;128.93;56.03;;;;;;;-1.09;100.00;100478.09;2075144;28;20200;-69
2022/03/15 02:14:04;;;;;;;117.32;50.65;;;;;;;-1.13;100.00;100480.28;2074638;28;20216;-68
2022/03/15 02:15:11;;;;;;;127.72;55.25;;;;;;;-1.18;100.00;100477.41;2075183;28;20307;-68
2022/03/15 02:16:19;;;;;;;122.80;54.88;;;;;;;-1.23;100.00;100480.56;2074128;28;20243;-69
2022/03/15 02:17:26;;;;;;;120.10;52.95;;;;;;;-1.29;100.00;100480.50;2069203;28;20201;-68
2022/03/15 02:18:31;;;;;;;135.73;60.30;;;;;;;-1.32;100.00;100486.09;2066963;28;20205;-69
2022/03/15 02:19:41;;;;;;;149.63;63.67;;;;;;;-1.35;100.00;100484.66;2067412;28;20275;-69
2022/03/15 02:20:47;;;;;;;150.90;64.60;;;;;;;-1.36;100.00;100485.66;2074567;28;20283;-69
2022/03/15 02:21:49;;;;;;;144.25;61.80;;;;;;;-1.37;100.00;100484.03;2074441;28;20228;-69
2022/03/15 02:22:57;;;;;;;147.70;60.83;;;;;;;-1.37;100.00;100491.88;2074623;28;20656;-68
2022/03/15 02:24:06;;;;;;;128.02;55.85;;;;;;;-1.36;100.00;100487.47;2074663;28;20177;-69
2022/03/15 02:25:15;;;;;;;126.30;55.65;;;;;;;-1.37;100.00;100491.09;2076572;28;20243;-68
2022/03/15 02:26:21;;;;;;;138.05;59.47;;;;;;;-1.39;100.00;100488.66;2075057;28;20227;-68
2022/03/15 02:27:26;;;;;;;132.27;58.42;;;;;;;-1.38;100.00;100492.88;2075791;28;20235;-68
2022/03/15 02:28:27;;;;;;;122.50;58.15;;;;;;;-1.35;100.00;100489.09;2075587;28;20200;-68
2022/03/15 02:29:33;;;;;;;135.75;58.05;;;;;;;-1.31;100.00;100498.19;2074252;28;20200;-69
2022/03/15 02:30:40;;;;;;;142.90;61.63;;;;;;;-1.19;100.00;100502.78;2068904;28;20209;-68
2022/03/15 02:31:48;;;;;;;154.82;64.95;;;;;;;-1.05;100.00;100492.44;2074656;28;20173;-70
2022/03/15 02:32:56;;;;;;;162.18;67.13;;;;;;;-0.92;100.00;100498.66;2076718;28;20256;-68
2022/03/15 02:34:02;;;;;;;146.23;62.28;;;;;;;-0.82;100.00;100505.41;2074636;28;20180;-68
2022/03/15 02:35:04;;;;;;;148.77;62.08;;;;;;;-0.78;100.00;100507.47;2073865;28;20240;-69
2022/03/15 02:36:08;;;;;;;140.38;60.38;;;;;;;-0.72;100.00;100511.94;2075631;28;20242;-68
2022/03/15 02:37:17;;;;;;;143.55;63.28;;;;;;;-0.77;100.00;100506.47;2075194;28;20173;-70
2022/03/15 02:38:26;;;;;;;142.68;61.10;;;;;;;-0.76;100.00;100510.72;2075621;28;20204;-69
2022/03/15 02:39:29;;;;;;;147.15;60.85;;;;;;;-0.80;100.00;100506.00;2074432;28;20196;-69
2022/03/15 02:40:35;;;;;;;151.48;61.85;;;;;;;-0.84;100.00;100500.34;2075622;28;20188;-69
2022/03/15 02:41:39;;;;;;;136.73;59.67;;;;;;;-0.86;100.00;100497.91;2075784;28;20603;-69
2022/03/15 02:42:44;;;;;;;127.78;56.45;;;;;;;-0.86;100.00;100499.72;2074821;28;20235;-69
2022/03/15 02:43:48;;;;;;;134.90;60.03;;;;;;;-0.86;100.00;100502.34;2076536;28;20704;-69
2022/03/15 02:44:59;;;;;;;137.98;58.95;;;;;;;-0.87;100.00;100501.53;2074852;28;20654;-69
2022/03/15 02:46:07;;;;;;;134.35;59.25;;;;;;;-0.86;100.00;100500.53;2076492;28;20563;-69
2022/03/15 02:47:17;;;;;;;133.30;57.97;;;;;;;-0.85;100.00;100501.34;2074775;28;20185;-69
2022/03/15 02:48:26;;;;;;;137.38;59.53;;;;;;;-0.83;100.00;100504.59;2074794;28;20584;-69
2022/03/15 02:49:28;;;;;;;140.13;59.55;;;;;;;-0.81;100.00;100504.41;2074773;28;20173;-69
2022/03/15 02:50:33;;;;;;;139.32;60.05;;;;;;;-0.76;100.00;100509.91;2074923;28;20191;-70
2022/03/15 02:51:46;;;;;;;138.27;60.42;;;;;;;-0.77;100.00;100508.28;2076385;28;20224;-69
2022/03/15 02:52:55;;;;;;;146.43;62.70;;;;;;;-0.81;100.00;100510.44;2074969;28;20175;-69
2022/03/15 02:54:08;;;;;;;153.85;63.90;;;;;;;-0.83;100.00;100516.88;2076270;28;20203;-69
2022/03/15 02:55:14;;;;;;;148.52;62.88;;;;;;;-0.86;100.00;100513.63;2074965;28;20179;-69
2022/03/15 02:56:21;;;;;;;152.90;60.90;;;;;;;-0.85;100.00;100519.69;2074189;28;20235;-69
2022/03/15 02:57:24;;;;;;;143.55;59.83;;;;;;;-0.86;100.00;100523.31;2074246;28;20215;-69
2022/03/15 02:58:33;;;;;;;144.18;61.55;;;;;;;-0.84;100.00;100518.69;2074035;28;20688;-69
2022/03/15 02:59:42;;;;;;;157.98;63.72;;;;;;;-0.84;100.00;100521.31;2075277;28;20658;-69
2022/03/15 03:00:56;;;;;;;145.45;63.65;;;;;;;-0.88;100.00;100518.22;2067465;28;20264;-69
2022/03/15 03:02:02;;;;;;;143.02;62.63;;;;;;;-0.91;100.00;100523.03;2074582;28;20172;-69
2022/03/15 03:03:07;;;;;;;145.13;60.88;;;;;;;-0.92;100.00;100514.38;2074744;28;20683;-69
2022/03/15 03:04:10;;;;;;;140.40;61.00;;;;;;;-0.91;100.00;100520.41;2074058;28;20231;-69
2022/03/15 03:05:13;;;;;;;156.52;63.17;;;;;;;-0.97;100.00;100510.66;2074379;28;20188;-69
2022/03/15 03:06:18;;;;;;;141.85;61.00;;;;;;;-1.02;100.00;100513.03;2073575;28;20223;-69
2022/03/15 03:07:24;;;;;;;145.93;60.70;;;;;;;-1.06;100.00;100507.34;2075235;28;20192;-70
2022/03/15 03:08:27;;;;;;;137.82;58.55;;;;;;;-1.09;100.00;100522.63;2073536;28;20200;-69
2022/03/15 03:09:35;;;;;;;138.30;59.65;;;;;;;-1.17;100.00;100508.66;2074441;28;20287;-68
2022/03/15 03:10:38;;;;;;;132.10;55.05;;;;;;;-1.21;100.00;100520.50;2074430;28;20614;-69
2022/03/15 03:11:43;;;;;;;135.10;56.15;;;;;;;-1.24;100.00;100520.03;2074833;28;20568;-69
2022/03/15 03:12:51;;;;;;;130.90;57.35;;;;;;;-1.28;100.00;100519.59;2075487;28;20200;-69
2022/03/15 03:14:00;;;;;;;131.95;56.83;;;;;;;-1.32;100.00;100527.97;2074000;28;20279;-69
2022/03/15 03:15:09;;;;;;;129.63;54.85;;;;;;;-1.38;100.00;100524.31;2066833;28;20205;-69
2022/03/15 03:16:23;;;;;;;130.85;55.30;;;;;;;-1.42;100.00;100520.41;2074134;28;20193;-70
2022/03/15 03:17:27;;;;;;;124.65;56.75;;;;;;;-1.48;100.00;100523.75;2074177;28;20192;-69
2022/03/15 03:18:34;;;;;;;123.95;55.40;;;;;;;-1.50;100.00;100523.13;2073472;28;20203;-69
2022/03/15 03:19:44;;;;;;;116.68;53.05;;;;;;;-1.55;100.00;100522.88;2074848;28;20180;-69
2022/03/15 03:20:56;;;;;;;119.97;53.95;;;;;;;-1.58;100.00;100526.63;2074967;28;20204;-69
2022/03/15 03:22:04;;;;;;;125.00;53.22;;;;;;;-1.64;100.00;100524.75;2073767;28;20243;-69
2022/03/15 03:23:19;;;;;;;110.38;51.88;;;;;;;-1.68;100.00;100525.28;2075138;28;20655;-69
2022/03/15 03:24:24;;;;;;;118.13;53.25;;;;;;;-1.73;100.00;100524.03;2073867;28;20204;-69
2022/03/15 03:25:30;;;;;;;116.70;53.35;;;;;;;-1.75;100.00;100515.53;2075264;28;20194;-70
2022/03/15 03:26:36;;;;;;;116.43;52.83;;;;;;;-1.81;100.00;100521.50;2074875;28;20551;-69
2022/03/15 03:27:46;;;;;;;110.78;50.10;;;;;;;-1.83;100.00;100520.84;2074446;28;20216;-68
2022/03/15 03:28:54;;;;;;;125.80;51.72;;;;;;;-1.84;100.00;100514.00;2075208;28;20561;-69
2022/03/15 03:30:02;;;;;;;113.22;49.78;;;;;;;-1.90;100.00;100513.91;2075765;28;20334;-68
2022/03/15 03:31:12;;;;;;;110.47;51.28;;;;;;;-1.90;100.00;100519.16;2082681;28;20255;-69
2022/03/15 03:32:18;;;;;;;94.82;47.40;;;;;;;-1.93;100.00;100519.47;2073799;28;20208;-69
2022/03/15 03:33:21;;;;;;;106.32;49.60;;;;;;;-1.95;100.00;100517.06;2074963;28;20223;-69
2022/03/15 03:34:33;;;;;;;105.03;48.80;;;;;;;-2.01;100.00;100515.94;2074931;28;20203;-69
2022/03/15 03:35:43;;;;;;;106.88;46.78;;;;;;;-2.04;100.00;100524.16;2074474;28;20249;-69
2022/03/15 03:37:01;;;;;;;101.60;48.20;;;;;;;-2.05;100.00;100521.72;2073907;28;20227;-69
2022/03/15 03:38:07;;;;;;;93.90;43.00;;;;;;;-2.08;100.00;100522.91;2067137;28;20224;-69
2022/03/15 03:39:14;;;;;;;86.60;44.88;;;;;;;-2.07;100.00;100523.72;2075514;28;20667;-69
2022/03/15 03:40:18;;;;;;;84.03;42.08;;;;;;;-2.11;100.00;100520.63;2074609;28;20636;-68
2022/03/15 03:41:28;;;;;;;87.80;41.67;;;;;;;-2.11;100.00;100519.81;2075466;28;20180;-69
2022/03/15 03:42:39;;;;;;;79.65;42.72;;;;;;;-2.09;100.00;100518.63;2073732;28;20214;-68
2022/03/15 03:43:53;;;;;;;91.65;45.65;;;;;;;-2.06;100.00;100512.28;2075062;28;20197;-69
2022/03/15 03:45:04;;;;;;;91.60;43.83;;;;;;;-2.02;100.00;100511.72;2073890;28;20262;-69
2022/03/15 03:46:10;;;;;;;88.15;44.60;;;;;;;-1.98;100.00;100512.19;2074150;28;20327;-69
2022/03/15 03:47:16;;;;;;;100.72;46.65;;;;;;;-1.97;100.00;100513.00;2074590;28;20179;-69
2022/03/15 03:48:26;;;;;;;97.68;47.92;;;;;;;-1.98;100.00;100514.81;2074302;28;20640;-68
2022/03/15 03:49:33;;;;;;;109.75;49.53;;;;;;;-1.95;100.00;100513.63;2075881;28;20199;-70
2022/03/15 03:50:44;;;;;;;118.70;54.70;;;;;;;-1.94;100.00;100517.88;2074229;28;20212;-70
2022/03/15 03:51:57;;;;;;;123.35;55.20;;;;;;;-1.94;100.00;100512.63;2073775;28;20231;-70
2022/03/15 03:53:05;;;;;;;109.90;50.88;;;;;;;-1.97;100.00;100511.19;2074621;28;20172;-70
2022/03/15 03:54:09;;;;;;;119.88;54.67;;;;;;;-1.94;100.00;100515.25;2074431;28;20176;-70
2022/03/15 03:55:11;;;;;;;119.82;56.30;;;;;;;-1.93;100.00;100519.47;2074555;28;20671;-69
2022/03/15 03:56:23;;;;;;;117.68;54.78;;;;;;;-1.92;100.00;100516.69;2073655;28;20227;-68
2022/03/15 03:57:29;;;;;;;127.75;55.60;;;;;;;-1.95;100.00;100506.59;2075704;28;20614;-68
2022/03/15 03:58:39;;;;;;;128.38;56.83;;;;;;;-1.94;100.00;100513.44;2074574;28;20191;-68
2022/03/15 03:59:47;;;;;;;138.13;58.38;;;;;;;-1.93;100.00;100507.22;2074588;28;20200;-69
2022/03/15 04:00:53;;;;;;;125.35;58.28;;;;;;;-1.97;100.00;100503.34;2073266;28;20209;-69
2022/03/15 04:01:57;;;;;;;122.53;57.72;;;;;;;-1.95;100.00;100500.56;2073587;28;20204;-68
2022/03/15 04:03:06;;;;;;;134.98;60.33;;;;;;;-1.98;100.00;100486.03;2074815;28;20204;-68
2022/03/15 04:04:18;;;;;;;143.70;65.13;;;;;;;-1.97;100.00;100498.13;2073755;28;20591;-68
2022/03/15 04:05:30;;;;;;;152.75;66.38;;;;;;;-1.99;100.00;100494.88;2075220;28;20207;-69
2022/03/15 04:06:38;;;;;;;139.02;62.50;;;;;;;-1.97;100.00;100487.66;2072771;28;20732;-69
2022/03/15 04:07:43;;;;;;;131.80;60.22;;;;;;;-1.97;100.00;100492.88;2075664;28;20181;-68
2022/03/15 04:08:48;;;;;;;141.13;60.63;;;;;;;-1.97;100.00;100492.88;2074569;28;20259;-68
2022/03/15 04:09:56;;;;;;;130.20;61.22;;;;;;;-1.97;100.00;100492.88;2073915;28;20224;-69
2022/03/15 04:11:03;;;;;;;129.52;57.30;;;;;;;-1.97;100.00;100487.66;2066918;28;20297;-67
2022/03/15 04:12:12;;;;;;;119.82;56.20;;;;;;;-1.91;100.00;100486.94;2073732;28;20690;-68
2022/03/15 04:13:22;;;;;;;124.30;56.65;;;;;;;-1.85;100.00;100496.69;2073136;28;20207;-70
2022/03/15 04:14:36;;;;;;;114.28;55.03;;;;;;;-1.81;100.00;100503.19;2073649;28;20196;-70
2022/03/15 04:15:38;;;;;;;119.80;56.13;;;;;;;-1.76;100.00;100500.03;2074181;28;20187;-70
2022/03/15 04:16:41;;;;;;;121.65;54.63;;;;;;;-1.69;100.00;100495.69;2074157;28;20227;-69
2022/03/15 04:17:50;;;;;;;120.15;55.38;;;;;;;-1.66;100.00;100504.97;2074162;28;20212;-71
2022/03/15 04:18:59;;;;;;;120.70;56.63;;;;;;;-1.65;100.00;100498.75;2074481;28;20180;-69
2022/03/15 04:20:04;;;;;;;119.57;55.15;;;;;;;-1.66;100.00;100500.56;2074285;28;20635;-70
2022/03/15 04:21:16;;;;;;;124.60;56.25;;;;;;;-1.65;100.00;100511.84;2073600;28;20272;-70
2022/03/15 04:22:25;;;;;;;129.20;57.45;;;;;;;-1.67;100.00;100498.94;2074013;28;20247;-70
2022/03/15 04:23:28;;;;;;;126.75;56.20;;;;;;;-1.62;100.00;100508.88;2073427;28;20204;-68
2022/03/15 04:24:32;;;;;;;133.35;58.03;;;;;;;-1.59;100.00;100511.13;2073540;28;20195;-67
2022/03/15 04:25:43;;;;;;;131.93;58.38;;;;;;;-1.59;100.00;100509.31;2073809;28;20228;-68
2022/03/15 04:26:58;;;;;;;120.78;56.42;;;;;;;-1.55;100.00;100517.63;2073681;28;20180;-67
2022/03/15 04:28:03;;;;;;;115.78;54.90;;;;;;;-1.52;100.00;100514.63;2073999;28;20215;-68
2022/03/15 04:29:07;;;;;;;121.03;56.22;;;;;;;-1.49;100.00;100516.88;2074144;28;20200;-68
2022/03/15 04:30:10;;;;;;;117.93;53.28;;;;;;;-1.42;100.00;100517.78;2073969;28;20188;-68
2022/03/15 04:31:10;;;;;;;111.28;54.33;;;;;;;-1.43;100.00;100519.59;2073393;28;20195;-69
2022/03/15 04:32:18;;;;;;;122.10;55.83;;;;;;;-1.33;100.00;100526.34;2065074;28;20197;-68
2022/03/15 04:33:23;;;;;;;120.70;57.42;;;;;;;-1.31;100.00;100525.16;2073469;28;20683;-69
2022/03/15 04:34:33;;;;;;;113.40;54.22;;;;;;;-1.35;100.00;100529.16;2073168;28;20244;-69
2022/03/15 04:35:39;;;;;;;118.40;55.42;;;;;;;-1.39;100.00;100527.91;2073321;28;20255;-71
2022/03/15 04:36:48;;;;;;;130.35;55.95;;;;;;;-1.35;100.00;100533.59;2073538;28;20248;-70
2022/03/15 04:37:54;;;;;;;128.65;59.38;;;;;;;-1.43;100.00;100513.56;2073691;28;20275;-68
2022/03/15 04:38:56;;;;;;;127.80;57.90;;;;;;;-1.47;100.00;100517.53;2074138;28;20188;-68
2022/03/15 04:40:00;;;;;;;125.55;55.53;;;;;;;-1.53;100.00;100526.91;2074124;28;20196;-69
2022/03/15 04:41:07;;;;;;;128.43;55.58;;;;;;;-1.52;100.00;100523.31;2072926;28;20764;-69
2022/03/15 04:42:15;;;;;;;125.72;55.78;;;;;;;-1.45;100.00;100526.00;2073396;28;20238;-69
2022/03/15 04:43:24;;;;;;;132.45;57.88;;;;;;;-1.53;100.00;100526.09;2073831;28;20196;-68
2022/03/15 04:44:26;;;;;;;131.60;57.63;;;;;;;-1.52;100.00;100522.50;2073781;28;20643;-68
2022/03/15 04:45:29;;;;;;;123.63;58.35;;;;;;;-1.56;100.00;100519.44;2073389;28;20188;-68
2022/03/15 04:46:36;;;;;;;119.80;58.38;;;;;;;-1.54;100.00;100529.72;2065703;28;20204;-69
2022/03/15 04:47:41;;;;;;;149.30;59.67;;;;;;;-1.56;100.00;100523.88;2073590;28;20172;-69
2022/03/15 04:48:51;;;;;;;124.80;58.03;;;;;;;-1.56;100.00;100527.28;2073590;28;20204;-69
2022/03/15 04:49:58;;;;;;;122.72;57.42;;;;;;;-1.56;100.00;100526.47;2066939;28;20207;-69
2022/03/15 04:51:01;;;;;;;126.35;57.40;;;;;;;-1.58;100.00;100526.63;2072669;28;20308;-69
2022/03/15 04:52:04;;;;;;;125.20;57.30;;;;;;;-1.59;100.00;100521.59;2072907;28;20201;-69
2022/03/15 04:53:08;;;;;;;121.55;55.75;;;;;;;-1.61;100.00;100524.38;2073438;28;20717;-68
2022/03/15 04:54:14;;;;;;;129.18;58.42;;;;;;;-1.59;100.00;100526.81;2074164;28;20279;-69
2022/03/15 04:55:23;;;;;;;132.15;61.10;;;;;;;-1.65;100.00;100517.91;2073144;28;20295;-69
2022/03/15 04:56:29;;;;;;;125.32;57.33;;;;;;;-1.69;100.00;100521.84;2073408;28;20203;-68
2022/03/15 04:57:39;;;;;;;120.80;56.33;;;;;;;-1.75;100.00;100518.16;2073587;28;20222;-69
2022/03/15 04:58:43;;;;;;;121.32;56.80;;;;;;;-1.81;100.00;100516.28;2065496;28;20288;-68
2022/03/15 04:59:46;;;;;;;138.57;56.95;;;;;;;-1.86;100.00;100521.22;2065955;28;20308;-68